KUU weather

Kullu Manali Airport
Himachal Pradesh, India

Public forecast

Using degrees Celsius for public forecast. Weather courtesy of forecast.io.

Current aviation weather report (METAR) for Kullu Manali Airport

Report is more than 6 hours old.

Retrieved 2019/11/11 06:00 UTC (2 months ago):

VIBR 110600Z 00000KT 5000 HZ SCT040 BKN080 13/07 Q1019

Aviation forecast (TAF) for Kullu Manali Airport

Forecast is more than 12 hours old.

Retrieved 2019/07/10 06:00 UTC (6 months ago):

TAF VIBR 100500Z 1006/1112 21004KT 6000 SCT080 BKN080 BECMG 1005/1009 3000 -TSRA FEW015 FEW035CB BKN080